Denzil, Canada
Current Conditions -  °F | °C
As of 1:00 AM on Friday 31 Oct 2014 (Local Time) from CYKY Reporting Station
Overcast Overcast  
Wind Chill: -6°   Ceiling: 800
Heat Index:   Visibility: 15mi
Dew Point: -1°   Wind: 26mph
Humidity: 87%   Direction: 150°SSE
Pressure: 30.07"   Gusts: 37mph
Location:  52.23°N, 109.65°W
Report Text: CYKY 310700Z 15023G32KT 15SM OVC008 01/M01 A3007 RMK SC8 PRESFR SLP211
Loading
Personal Weather Stations






























Interactive Weather Map
Tropical Storm Tracking
New forecast layout! Learn more

10-Day Weather Forecast

Advertisements
Track Severe Weather on mobile